In Rescue
 
Open Full Screen Window  High Contrast Mode
Wind Gusting 00 knots
06
March 31, 2020 1:24 PM CDT
Weather Information
Wind Direction
  120 °
Wind Speed
  06 kt (7 mph)
Wind Gust
  00 kt (0 mph)
Altimeter
30.13 in
Visibility
10 SM
Temperature
08° C
46° F
Dewpoint
-06° C
21° F
Humidity
37%
1hr Rain Fall
00.00 in.
24hr Rain Fall
00.00 in.
Sky Condition
Clear
VFR

METAR KEVM 311824Z AUTO 12006KT 10SM CLR 08/M06 A3013 RMK AO2 T00841065

FAA Disclaimer: The data displayed is for advisory purposes only and is not to be used for flight planning or operations.